Time;durP1;ratioP1;P1;durP2;ratioP2;P2;SDS_P1;SDS_P2;PMS_P1;PMS_P2;Temp;Humidity;BMP_temperature;BMP_pressure;BME280_temperature;BME280_humidity;BME280_pressure;Samples;Min_cycle;Max_cycle;Signal;HPM_P1;HPM_P2
2022/09/09 02:46:29;;;;;;;2.45;0.35;;;16.20;99.90;;;;;;5970510;23;88610;31
2022/09/09 02:49:05;;;;;;;1.35;0.28;;;16.20;99.90;;;;;;4825043;29;87093;-69
2022/09/09 02:51:40;;;;;;;1.08;0.40;;;16.30;99.90;;;;;;4824152;29;87080;-70
2022/09/09 02:54:25;;;;;;;2.30;0.40;;;16.20;99.90;;;;;;4824432;29;86434;-68
2022/09/09 02:56:56;;;;;;;4.97;0.40;;;16.00;99.90;;;;;;4824578;29;88022;-70
2022/09/09 02:59:24;;;;;;;1.88;0.55;;;16.00;99.90;;;;;;4826809;29;86256;-72
2022/09/09 03:01:50;;;;;;;1.85;0.50;;;16.00;99.90;;;;;;4823985;29;87281;-72
2022/09/09 03:04:16;;;;;;;2.67;0.40;;;15.90;99.90;;;;;;4824702;29;87262;-71
2022/09/09 03:06:41;;;;;;;1.95;0.45;;;15.90;99.90;;;;;;4824182;29;89265;-68
2022/09/09 03:09:10;;;;;;;2.92;0.60;;;15.80;99.90;;;;;;4825608;29;87005;-72
2022/09/09 03:11:36;;;;;;;5.85;0.40;;;15.80;99.90;;;;;;4821922;29;86700;-71
2022/09/09 03:14:02;;;;;;;2.10;0.40;;;15.70;99.90;;;;;;4817580;29;86801;-73
2022/09/09 03:16:28;;;;;;;3.20;0.60;;;15.70;99.90;;;;;;4817103;29;87255;-72
2022/09/09 03:18:54;;;;;;;2.35;0.57;;;15.80;99.90;;;;;;4825748;29;87277;-68
2022/09/09 03:21:20;;;;;;;3.72;0.30;;;15.70;99.90;;;;;;4824164;29;86254;-73
2022/09/09 03:23:45;;;;;;;3.45;0.50;;;15.70;99.90;;;;;;4825839;29;86253;-69
2022/09/09 03:26:11;;;;;;;2.45;0.30;;;15.70;99.90;;;;;;4822834;29;87293;-73
2022/09/09 03:28:37;;;;;;;3.45;0.22;;;15.70;99.90;;;;;;4823603;29;86995;-72
2022/09/09 03:31:05;;;;;;;2.95;0.38;;;15.80;99.90;;;;;;4811160;29;87225;-72
2022/09/09 03:33:31;;;;;;;1.38;0.50;;;15.90;99.90;;;;;;4825521;29;86196;-70
2022/09/09 03:35:57;;;;;;;2.03;0.63;;;15.80;99.90;;;;;;4824210;29;87663;-70
2022/09/09 03:38:24;;;;;;;2.25;0.35;;;15.80;99.90;;;;;;4825173;29;86256;-70
2022/09/09 03:40:53;;;;;;;0.88;0.32;;;15.80;99.90;;;;;;4815478;29;86276;-71
2022/09/09 03:43:19;;;;;;;1.73;0.50;;;15.90;99.90;;;;;;4824922;29;87144;-71
2022/09/09 03:45:49;;;;;;;1.38;0.32;;;16.00;99.90;;;;;;4824124;29;87147;-74
2022/09/09 03:48:15;;;;;;;3.00;0.70;;;16.20;99.90;;;;;;4823615;29;86941;-70
2022/09/09 03:50:49;;;;;;;3.47;0.88;;;16.20;99.90;;;;;;4824051;29;86712;-70
2022/09/09 03:53:16;;;;;;;2.83;0.70;;;16.10;99.90;;;;;;4836713;29;86732;-71
2022/09/09 03:55:54;;;;;;;1.42;0.52;;;16.00;99.90;;;;;;4830663;29;88562;-73
2022/09/09 03:58:21;;;;;;;1.80;0.73;;;16.00;99.90;;;;;;4823647;29;87134;-74
2022/09/09 04:00:57;;;;;;;2.97;0.70;;;15.90;99.90;;;;;;4825762;29;86450;-72
2022/09/09 04:03:24;;;;;;;1.88;0.73;;;15.80;99.90;;;;;;4812472;29;87195;-73
2022/09/09 04:05:51;;;;;;;1.65;0.40;;;15.90;99.90;;;;;;4823079;29;86578;-77
2022/09/09 04:08:18;;;;;;;2.45;0.52;;;16.00;99.90;;;;;;4822587;29;87485;-72
2022/09/09 04:10:46;;;;;;;2.65;0.47;;;16.10;99.90;;;;;;4814186;29;87481;-73
2022/09/09 04:13:15;;;;;;;3.35;0.73;;;16.20;99.90;;;;;;4822085;29;86350;-71
2022/09/09 04:15:43;;;;;;;3.92;0.73;;;16.20;99.90;;;;;;4824349;29;87263;-70
2022/09/09 04:18:09;;;;;;;6.05;1.63;;;16.20;99.90;;;;;;4820625;29;87738;-71
2022/09/09 04:20:35;;;;;;;5.60;1.50;;;16.00;99.90;;;;;;4818170;29;87695;-74
2022/09/09 04:23:01;;;;;;;5.35;1.48;;;15.90;99.90;;;;;;4822680;29;87077;-69
2022/09/09 04:25:27;;;;;;;4.22;1.17;;;16.00;99.90;;;;;;4823398;29;87750;-75
2022/09/09 04:27:56;;;;;;;5.70;0.70;;;15.80;99.90;;;;;;4823476;29;87115;-72
2022/09/09 04:30:23;;;;;;;8.05;1.25;;;15.70;99.90;;;;;;4825548;29;86771;-71
2022/09/09 04:32:49;;;;;;;4.40;0.73;;;15.70;99.90;;;;;;4822647;29;86186;-71
2022/09/09 04:35:15;;;;;;;6.82;0.80;;;15.70;99.90;;;;;;4822374;29;89343;-70
2022/09/09 04:37:41;;;;;;;2.88;0.70;;;15.70;99.90;;;;;;4816760;29;87107;-71
2022/09/09 04:40:09;;;;;;;3.83;0.50;;;15.60;99.90;;;;;;4824059;29;87329;-71
2022/09/09 04:42:39;;;;;;;2.03;0.70;;;15.70;99.90;;;;;;4827887;29;86498;-70
2022/09/09 04:45:06;;;;;;;;;;;15.80;99.90;;;;;;4824828;29;88879;-70
2022/09/09 04:47:32;;;;;;;2.40;0.60;;;15.90;99.90;;;;;;4828469;29;87219;-69
2022/09/09 04:49:57;;;;;;;1.88;0.50;;;15.90;99.90;;;;;;4825590;29;86411;-71
2022/09/09 04:52:23;;;;;;;3.05;0.60;;;16.00;99.90;;;;;;4825012;29;86746;-73
2022/09/09 04:54:49;;;;;;;2.20;0.52;;;16.10;99.90;;;;;;4825353;29;86964;-72
2022/09/09 04:57:14;;;;;;;5.00;0.57;;;16.10;99.90;;;;;;4824943;29;86968;-74
2022/09/09 04:59:40;;;;;;;2.53;0.50;;;16.10;99.90;;;;;;4821747;29;86468;-71
2022/09/09 05:02:06;;;;;;;2.92;0.55;;;16.20;99.90;;;;;;4821007;29;86196;-75
2022/09/09 05:04:32;;;;;;;5.55;0.68;;;16.20;99.90;;;;;;4822327;29;87260;-71
2022/09/09 05:06:59;;;;;;;3.95;0.50;;;16.30;99.90;;;;;;4822140;29;86416;-70
2022/09/09 05:09:25;;;;;;;1.88;0.50;;;16.30;99.90;;;;;;4819273;29;88082;-69
2022/09/09 05:11:51;;;;;;;3.30;0.50;;;16.30;99.90;;;;;;4821319;29;87198;-72
2022/09/09 05:14:17;;;;;;;4.10;0.50;;;16.50;99.90;;;;;;4820566;29;88109;-71
2022/09/09 05:16:44;;;;;;;2.95;0.35;;;16.50;99.90;;;;;;4820898;29;86857;-72
2022/09/09 05:19:10;;;;;;;1.88;0.60;;;16.60;99.90;;;;;;4820977;29;86400;-67
2022/09/09 05:21:36;;;;;;;2.08;0.50;;;16.70;99.90;;;;;;4813936;29;88109;-70
2022/09/09 05:24:03;;;;;;;5.05;0.38;;;16.60;99.90;;;;;;4820946;29;86763;-68
2022/09/09 05:26:32;;;;;;;3.20;0.60;;;16.50;99.90;;;;;;4822462;29;86820;-70
2022/09/09 05:28:58;;;;;;;2.90;0.63;;;16.50;99.90;;;;;;4816049;29;87280;-68
2022/09/09 05:31:28;;;;;;;1.92;0.40;;;16.30;99.90;;;;;;4816560;29;87844;-67
2022/09/09 05:33:54;;;;;;;2.33;0.43;;;16.20;99.90;;;;;;4817993;29;88442;-67
2022/09/09 05:36:21;;;;;;;1.42;0.40;;;16.40;99.90;;;;;;4817124;29;87972;-68
2022/09/09 05:38:48;;;;;;;2.00;0.40;;;16.50;99.90;;;;;;4825248;29;86276;-68
2022/09/09 05:41:17;;;;;;;2.72;0.55;;;16.40;99.90;;;;;;4823745;29;87005;-76
2022/09/09 05:43:44;;;;;;;1.38;0.30;;;16.40;99.90;;;;;;4821667;29;86811;-75
2022/09/09 05:46:21;;;;;;;3.17;0.40;;;16.30;99.90;;;;;;4819828;29;87001;-72
2022/09/09 05:48:50;;;;;;;1.90;0.38;;;16.40;99.90;;;;;;4822817;29;86305;-79
2022/09/09 05:51:22;;;;;;;5.43;0.65;;;16.40;99.90;;;;;;4824661;29;86914;-72
2022/09/09 05:53:48;;;;;;;1.30;0.35;;;16.40;99.90;;;;;;4823557;29;86757;-71
2022/09/09 05:56:17;;;;;;;5.82;0.43;;;16.50;99.90;;;;;;4824009;29;86923;-71
2022/09/09 05:58:43;;;;;;;2.65;0.65;;;16.50;99.90;;;;;;4824079;29;87692;-71
2022/09/09 06:01:15;;;;;;;2.05;0.65;;;16.60;99.90;;;;;;4818045;29;87071;-70
2022/09/09 06:03:42;;;;;;;3.67;0.32;;;16.70;99.90;;;;;;4823385;29;86720;-74
2022/09/09 06:06:14;;;;;;;2.78;0.40;;;16.90;99.90;;;;;;4820640;29;86200;-70
2022/09/09 06:08:44;;;;;;;2.88;0.38;;;17.00;99.90;;;;;;4823590;29;86896;-78
2022/09/09 06:11:24;;;;;;;2.72;0.30;;;17.00;99.90;;;;;;4822400;29;86589;-73
2022/09/09 06:13:54;;;;;;;2.78;0.57;;;17.10;99.90;;;;;;4822206;29;86623;-73
2022/09/09 06:16:24;;;;;;;2.90;0.63;;;17.10;99.90;;;;;;4822549;29;86333;-72
2022/09/09 06:18:51;;;;;;;1.92;0.43;;;17.20;99.90;;;;;;4813923;29;87036;-72
2022/09/09 06:21:19;;;;;;;4.50;0.35;;;17.30;99.90;;;;;;4816721;29;86741;-71
2022/09/09 06:23:46;;;;;;;2.53;0.47;;;17.40;99.90;;;;;;4819457;29;88267;-72
2022/09/09 06:26:19;;;;;;;4.72;0.40;;;17.60;99.90;;;;;;4822145;29;86998;-72
2022/09/09 06:28:47;;;;;;;1.50;0.22;;;17.70;99.90;;;;;;4818022;29;87577;-71
2022/09/09 06:31:17;;;;;;;2.45;0.45;;;17.70;99.90;;;;;;4821193;29;86835;-72
2022/09/09 06:33:44;;;;;;;2.10;0.38;;;17.80;99.90;;;;;;4823650;29;87035;-76
2022/09/09 06:36:15;;;;;;;1.83;0.32;;;17.90;99.90;;;;;;4822208;29;86945;-74
2022/09/09 06:38:45;;;;;;;2.33;0.30;;;17.90;99.90;;;;;;4817932;29;86725;-73
2022/09/09 06:41:12;;;;;;;1.67;0.50;;;17.90;99.90;;;;;;4824604;29;85612;-71
2022/09/09 06:43:39;;;;;;;2.92;1.23;;;17.90;99.90;;;;;;4824603;29;86953;-74
2022/09/09 06:46:13;;;;;;;1.60;0.20;;;17.90;99.90;;;;;;4824347;29;88405;-72
2022/09/09 06:48:42;;;;;;;3.25;0.32;;;17.90;99.90;;;;;;4821708;29;87968;-73
2022/09/09 06:51:18;;;;;;;3.13;0.50;;;17.90;99.90;;;;;;4824864;29;86952;-75
2022/09/09 06:53:45;;;;;;;2.95;0.50;;;17.80;99.90;;;;;;4819406;29;87688;-73
2022/09/09 06:56:11;;;;;;;3.60;0.52;;;17.70;99.90;;;;;;4820063;29;87191;-71
2022/09/09 06:58:42;;;;;;;2.35;0.30;;;17.50;99.90;;;;;;4817562;29;86909;-76
2022/09/09 07:01:09;;;;;;;2.65;0.30;;;17.50;99.90;;;;;;4817207;29;88034;-71
2022/09/09 07:03:35;;;;;;;1.58;0.32;;;17.60;99.90;;;;;;4816926;29;87612;-75
2022/09/09 07:06:02;;;;;;;3.00;0.30;;;17.60;99.90;;;;;;4818605;29;87975;-71
2022/09/09 07:08:28;;;;;;;3.38;0.32;;;17.60;99.90;;;;;;4815354;29;87232;-72
2022/09/09 07:10:54;;;;;;;2.10;0.52;;;17.60;99.90;;;;;;4821081;29;86832;-76
2022/09/09 07:13:26;;;;;;;3.33;0.30;;;17.60;99.90;;;;;;4816597;29;88813;-74
2022/09/09 07:15:53;;;;;;;2.42;0.45;;;17.60;99.90;;;;;;4815748;29;88137;-70
2022/09/09 07:18:19;;;;;;;3.50;0.50;;;17.70;99.90;;;;;;4818688;29;87565;-70
2022/09/09 07:20:55;;;;;;;3.38;0.65;;;17.70;99.90;;;;;;4820659;29;86511;-71
2022/09/09 07:23:20;;;;;;;2.78;0.50;;;17.80;99.90;;;;;;4819374;29;87429;-73
2022/09/09 07:25:47;;;;;;;8.60;0.55;;;17.70;99.90;;;;;;4814991;29;87053;-73
2022/09/09 07:28:13;;;;;;;3.72;0.60;;;17.60;99.90;;;;;;4811184;29;86669;-75
2022/09/09 07:30:39;;;;;;;3.72;0.50;;;17.60;99.90;;;;;;4813320;29;86006;-72
2022/09/09 07:33:06;;;;;;;2.95;0.40;;;17.60;99.90;;;;;;4813311;29;88964;-77
2022/09/09 07:35:32;;;;;;;5.38;0.45;;;17.60;99.90;;;;;;4813497;29;86959;-74
2022/09/09 07:38:00;;;;;;;3.75;0.65;;;17.60;99.90;;;;;;4814062;29;87672;-74
2022/09/09 07:40:25;;;;;;;3.22;0.28;;;17.60;99.90;;;;;;4817887;29;86800;-77
2022/09/09 07:42:51;;;;;;;2.58;0.30;;;17.70;99.90;;;;;;4818205;29;87257;-71
2022/09/09 07:45:17;;;;;;;1.55;0.30;;;17.80;99.90;;;;;;4818636;29;86575;-72
2022/09/09 07:47:43;;;;;;;2.20;0.40;;;17.90;99.90;;;;;;4821074;29;87369;-73
2022/09/09 07:50:11;;;;;;;2.00;0.50;;;17.80;99.90;;;;;;4818294;29;86710;-74
2022/09/09 07:52:37;;;;;;;4.82;0.32;;;17.80;99.90;;;;;;4814110;29;87289;-72
2022/09/09 07:55:04;;;;;;;1.63;0.20;;;17.90;99.90;;;;;;4818419;29;86953;-73
2022/09/09 07:57:30;;;;;;;4.00;0.30;;;18.00;99.90;;;;;;4816168;29;86600;-77
2022/09/09 07:59:56;;;;;;;1.35;0.30;;;18.00;99.90;;;;;;4819963;29;88173;-72
2022/09/09 08:02:23;;;;;;;3.45;0.38;;;17.90;99.90;;;;;;4820526;29;87531;-72
2022/09/09 08:04:49;;;;;;;2.20;0.30;;;17.80;99.90;;;;;;4814596;29;87319;-72
2022/09/09 08:07:16;;;;;;;1.02;0.35;;;17.60;99.90;;;;;;4816122;29;86841;-73
2022/09/09 08:09:42;;;;;;;2.33;0.20;;;17.60;99.90;;;;;;4816955;29;87077;-76
2022/09/09 08:12:08;;;;;;;3.83;0.10;;;17.50;99.90;;;;;;4818479;29;87331;-71
2022/09/09 08:14:34;;;;;;;7.25;0.20;;;17.60;99.90;;;;;;4815425;29;86914;-71
2022/09/09 08:17:00;;;;;;;3.42;0.47;;;17.60;99.90;;;;;;4820207;29;87352;-70
2022/09/09 08:19:29;;;;;;;2.80;0.47;;;17.80;99.90;;;;;;4821722;29;85563;-73
2022/09/09 08:21:54;;;;;;;1.33;0.32;;;17.90;99.90;;;;;;4821256;29;87688;-70
2022/09/09 08:24:20;;;;;;;4.43;0.30;;;18.00;99.20;;;;;;4818652;29;86937;-72
2022/09/09 08:26:49;;;;;;;1.65;0.38;;;18.00;99.00;;;;;;4815669;29;87658;-71
2022/09/09 08:29:15;;;;;;;2.15;0.30;;;18.00;99.20;;;;;;4821012;29;87124;-70
2022/09/09 08:31:47;;;;;;;4.18;0.40;;;17.80;99.60;;;;;;4817606;29;87272;-70
2022/09/09 08:34:13;;;;;;;1.27;0.22;;;17.90;99.90;;;;;;4817336;29;86533;-75
2022/09/09 08:36:42;;;;;;;2.92;0.22;;;17.90;99.30;;;;;;4812379;29;87009;-72
2022/09/09 08:39:09;;;;;;;2.67;0.30;;;17.90;97.40;;;;;;4821636;29;86955;-74
2022/09/09 08:41:53;;;;;;;2.47;0.40;;;17.90;97.80;;;;;;4820415;29;86840;-74
2022/09/09 08:44:34;;;;;;;3.15;0.30;;;18.00;98.80;;;;;;4818797;29;87011;-74
2022/09/09 08:47:22;;;;;;;1.65;0.32;;;17.90;98.70;;;;;;4818498;29;87053;-70
2022/09/09 08:50:21;;;;;;;1.83;0.25;;;17.90;99.30;;;;;;4813877;29;86344;-72
2022/09/09 08:53:05;;;;;;;2.55;0.30;;;18.10;98.80;;;;;;4819103;29;88400;-73
2022/09/09 08:55:37;;;;;;;1.85;0.30;;;18.00;99.90;;;;;;4812939;29;87180;-70
2022/09/09 08:58:11;;;;;;;3.78;0.95;;;18.00;99.90;;;;;;4814106;29;86965;-74
2022/09/09 09:01:00;;;;;;;7.60;2.40;;;18.00;99.90;;;;;;4816219;29;86350;-74
2022/09/09 09:04:01;;;;;;;9.38;3.30;;;18.10;99.90;;;;;;4821574;29;86874;-74
2022/09/09 09:06:38;;;;;;;12.18;4.75;;;18.00;99.90;;;;;;4813513;29;87001;-74
2022/09/09 09:09:38;;;;;;;7.05;2.33;;;18.00;99.90;;;;;;4820201;29;86861;-75
2022/09/09 09:12:19;;;;;;;5.28;1.50;;;17.90;99.90;;;;;;4820143;29;85622;-70
2022/09/09 09:14:47;;;;;;;8.45;2.30;;;17.90;99.90;;;;;;4818913;29;87283;-73
2022/09/09 09:17:18;;;;;;;9.98;2.78;;;17.90;99.90;;;;;;4806832;29;87045;-70
2022/09/09 09:19:46;;;;;;;5.43;1.05;;;17.90;99.90;;;;;;4821047;29;88431;-71
2022/09/09 09:22:28;;;;;;;7.97;1.40;;;17.90;99.90;;;;;;4821544;29;88391;-73
2022/09/09 09:25:02;;;;;;;4.78;1.30;;;17.90;99.90;;;;;;4819409;29;86800;-70
2022/09/09 09:27:34;;;;;;;6.68;1.30;;;18.00;99.90;;;;;;4824979;29;87200;-72
2022/09/09 09:30:14;;;;;;;5.13;0.95;;;18.10;99.90;;;;;;4820779;29;86639;-74
2022/09/09 09:32:49;;;;;;;3.75;0.43;;;18.10;99.90;;;;;;4822363;29;86818;-71
2022/09/09 09:35:15;;;;;;;2.85;0.43;;;18.10;99.90;;;;;;4820734;29;87308;-73
2022/09/09 09:37:43;;;;;;;2.72;0.22;;;18.20;99.90;;;;;;4821724;29;86950;-72
2022/09/09 09:40:18;;;;;;;2.28;0.20;;;18.30;99.90;;;;;;4810506;29;86603;-70
2022/09/09 09:42:57;;;;;;;2.60;0.43;;;18.20;99.90;;;;;;4819248;29;86375;-74
2022/09/09 09:45:28;;;;;;;3.55;0.73;;;18.30;99.90;;;;;;4822921;29;87534;-72
2022/09/09 09:48:05;;;;;;;3.95;0.55;;;18.20;99.90;;;;;;4818616;29;88309;-74
2022/09/09 09:50:32;;;;;;;2.97;0.70;;;18.20;99.90;;;;;;4823029;29;86612;-77
2022/09/09 09:53:04;;;;;;;2.47;0.40;;;18.30;99.90;;;;;;4822033;29;86571;-71
2022/09/09 09:55:35;;;;;;;2.60;0.40;;;18.20;99.90;;;;;;4825555;29;87404;-75
2022/09/09 09:58:03;;;;;;;3.60;0.40;;;18.30;99.90;;;;;;4825292;29;86487;-70
2022/09/09 10:00:29;;;;;;;1.52;0.60;;;18.10;99.90;;;;;;4818924;29;86960;-76
2022/09/09 10:02:56;;;;;;;5.35;1.13;;;18.10;99.90;;;;;;4818777;29;86112;-72
2022/09/09 10:05:35;;;;;;;4.20;0.50;;;18.20;99.90;;;;;;4816212;29;87222;-74
2022/09/09 10:08:11;;;;;;;1.85;0.40;;;18.20;99.90;;;;;;4822093;29;86622;-77
2022/09/09 10:11:02;;;;;;;2.35;0.43;;;18.30;99.90;;;;;;4820245;29;88026;-71
2022/09/09 10:13:49;;;;;;;6.15;0.73;;;18.50;99.90;;;;;;4798138;29;88434;-72
2022/09/09 10:16:52;;;;;;;1.95;0.43;;;19.50;99.90;;;;;;4819387;29;87330;-75
2022/09/09 10:19:29;;;;;;;4.03;0.90;;;20.90;96.50;;;;;;4793370;29;87155;-70
2022/09/09 10:22:13;;;;;;;2.10;0.60;;;21.40;94.10;;;;;;4814566;29;86374;-73
2022/09/09 10:24:49;;;;;;;3.70;0.47;;;22.20;90.30;;;;;;4820649;29;86820;-73
2022/09/09 10:27:25;;;;;;;4.13;0.60;;;21.70;90.50;;;;;;4822581;29;87267;-76
2022/09/09 10:30:13;;;;;;;2.92;0.45;;;22.10;90.80;;;;;;4809223;29;86934;-71
2022/09/09 10:32:45;;;;;;;2.78;0.60;;;22.00;87.50;;;;;;4815233;29;86493;-71
2022/09/09 10:35:30;;;;;;;3.88;0.40;;;21.70;88.50;;;;;;4821931;29;87002;-71
2022/09/09 10:38:02;;;;;;;3.15;0.57;;;21.70;89.50;;;;;;4818527;29;88749;-71
2022/09/09 10:40:31;;;;;;;1.45;0.35;;;22.30;81.20;;;;;;4819592;29;87669;-77
2022/09/09 10:43:42;;;;;;;16.85;1.38;;;22.50;81.80;;;;;;4824545;29;86322;-70
2022/09/09 10:46:32;;;;;;;1.50;0.60;;;22.10;82.80;;;;;;4816233;29;86950;-72
2022/09/09 10:49:25;;;;;;;2.78;0.43;;;21.80;80.60;;;;;;4822076;29;87674;-71
2022/09/09 10:52:20;;;;;;;2.67;0.55;;;21.00;85.90;;;;;;4820900;29;87432;-71
2022/09/09 10:54:55;;;;;;;2.20;0.45;;;21.50;83.50;;;;;;4824266;29;86288;-74
2022/09/09 10:57:47;;;;;;;1.83;0.60;;;21.40;83.90;;;;;;4825319;29;86719;-71
2022/09/09 11:00:27;;;;;;;1.92;0.52;;;21.50;86.60;;;;;;4813273;29;87391;-72
2022/09/09 11:02:57;;;;;;;8.10;0.43;;;21.60;83.50;;;;;;4824189;29;86778;-74
2022/09/09 11:05:49;;;;;;;1.20;0.50;;;21.40;84.90;;;;;;4820123;29;87667;-74
2022/09/09 11:08:19;;;;;;;1.35;0.32;;;21.70;82.00;;;;;;4813512;29;87085;-74
2022/09/09 11:10:54;;;;;;;1.23;0.40;;;21.70;82.30;;;;;;4823868;29;87296;-71
2022/09/09 11:13:25;;;;;;;;;;;21.50;81.70;;;;;;4812840;29;87000;-71
2022/09/09 11:16:03;;;;;;;1.40;0.35;;;21.30;81.60;;;;;;4819873;29;86977;-72
2022/09/09 11:18:36;;;;;;;1.40;0.50;;;21.30;81.30;;;;;;4821518;29;86313;-70
2022/09/09 11:21:07;;;;;;;1.38;0.30;;;21.40;82.00;;;;;;4823417;29;87217;-73
2022/09/09 11:23:55;;;;;;;0.80;0.30;;;21.90;81.30;;;;;;4818970;29;86929;-73
2022/09/09 11:26:31;;;;;;;1.10;0.13;;;22.50;77.70;;;;;;4816952;29;87007;-73
2022/09/09 11:29:28;;;;;;;2.72;0.70;;;22.50;77.60;;;;;;4816712;29;86324;-71
2022/09/09 11:32:20;;;;;;;1.80;0.43;;;23.00;72.70;;;;;;4816395;29;88546;-73
2022/09/09 11:34:56;;;;;;;2.63;0.63;;;22.90;71.70;;;;;;4818077;29;88455;-70
2022/09/09 11:37:32;;;;;;;1.42;0.40;;;23.30;73.30;;;;;;4822959;29;86347;-74
2022/09/09 11:40:25;;;;;;;2.58;1.02;;;23.20;74.80;;;;;;4823282;29;87097;-72
2022/09/09 11:43:02;;;;;;;1.65;0.40;;;23.10;71.70;;;;;;4819574;29;87749;-73
2022/09/09 11:45:29;;;;;;;1.20;0.40;;;22.80;71.60;;;;;;4814384;29;87106;-72
2022/09/09 11:48:00;;;;;;;2.55;0.70;;;22.30;73.70;;;;;;4823277;29;86763;-72
2022/09/09 11:50:25;;;;;;;1.50;0.40;;;21.80;78.30;;;;;;4811159;29;86202;-71
2022/09/09 11:53:03;;;;;;;4.70;0.85;;;21.30;81.40;;;;;;4815001;29;88263;-70
2022/09/09 11:55:36;;;;;;;5.22;0.68;;;20.70;85.40;;;;;;4820119;29;86892;-72
2022/09/09 11:58:05;;;;;;;4.15;0.50;;;20.50;88.30;;;;;;4812991;29;87423;-72
2022/09/09 12:00:38;;;;;;;2.50;0.82;;;20.40;90.40;;;;;;4822390;29;86869;-73
2022/09/09 12:03:05;;;;;;;3.17;0.30;;;20.70;88.40;;;;;;4815885;29;87362;-70
2022/09/09 12:05:44;;;;;;;2.30;0.40;;;20.50;88.70;;;;;;4817659;29;86944;-73
2022/09/09 12:08:17;;;;;;;3.92;0.50;;;20.50;88.00;;;;;;4818997;29;86329;-71
2022/09/09 12:10:55;;;;;;;1.80;0.40;;;20.40;90.20;;;;;;4822538;29;86897;-70
2022/09/09 12:13:24;;;;;;;4.78;0.75;;;20.40;90.40;;;;;;4817948;29;86781;-70
2022/09/09 12:15:53;;;;;;;2.13;0.40;;;20.40;91.00;;;;;;4821912;29;86211;-73
2022/09/09 12:18:39;;;;;;;1.85;0.50;;;20.70;92.40;;;;;;4819508;29;87014;-71
2022/09/09 12:21:27;;;;;;;1.60;0.43;;;21.00;91.00;;;;;;4822516;29;86463;-72
2022/09/09 12:23:57;;;;;;;2.80;0.70;;;21.40;88.70;;;;;;4821026;29;87951;-76
2022/09/09 12:26:38;;;;;;;3.22;0.60;;;21.80;88.80;;;;;;4811355;29;88330;-72
2022/09/09 12:29:12;;;;;;;3.90;0.90;;;22.10;89.10;;;;;;4821132;29;86423;-72
2022/09/09 12:31:54;;;;;;;2.33;0.50;;;22.20;83.00;;;;;;4821054;29;86919;-70
2022/09/09 12:34:31;;;;;;;;;;;22.60;85.70;;;;;;4820758;29;87772;-70
2022/09/09 12:37:05;;;;;;;3.22;0.63;;;22.80;85.50;;;;;;4818211;29;87008;-70
2022/09/09 12:40:03;;;;;;;2.40;0.55;;;22.80;84.50;;;;;;4823112;29;86480;-73
2022/09/09 12:42:29;;;;;;;2.70;0.47;;;23.10;80.80;;;;;;4818006;29;85980;-72
2022/09/09 12:44:57;;;;;;;1.77;1.10;;;23.30;81.00;;;;;;4808732;29;88692;-71
2022/09/09 12:47:35;;;;;;;3.08;0.50;;;23.50;80.70;;;;;;4810928;29;86983;-69
2022/09/09 12:50:00;;;;;;;2.58;0.45;;;23.30;77.50;;;;;;4810313;29;87852;-73
2022/09/09 12:52:34;;;;;;;3.00;0.68;;;23.40;78.00;;;;;;4819368;29;87214;-71
2022/09/09 12:55:02;;;;;;;3.30;0.73;;;23.50;79.00;;;;;;4821649;29;87256;-70
2022/09/09 12:57:35;;;;;;;2.45;0.68;;;23.50;78.50;;;;;;4818667;29;86669;-72
2022/09/09 13:00:15;;;;;;;2.38;0.60;;;23.30;76.60;;;;;;4824600;29;87159;-70
2022/09/09 13:03:16;;;;;;;3.05;0.70;;;23.50;79.30;;;;;;4820268;29;86266;-72
2022/09/09 13:05:42;;;;;;;;;;;23.60;76.30;;;;;;4807658;29;87294;-72
2022/09/09 13:08:13;;;;;;;3.58;0.80;;;23.10;77.20;;;;;;4822936;29;86406;-75
2022/09/09 13:10:48;;;;;;;3.70;0.82;;;23.00;77.70;;;;;;4816197;29;87282;-71
2022/09/09 13:13:20;;;;;;;1.42;0.50;;;22.90;75.60;;;;;;4821109;29;86943;-70
2022/09/09 13:15:57;;;;;;;2.47;0.40;;;22.70;72.70;;;;;;4820668;29;87497;-71
2022/09/09 13:18:33;;;;;;;2.38;0.63;;;22.20;73.90;;;;;;4826137;29;87282;-73
2022/09/09 13:20:59;;;;;;;2.50;0.50;;;22.70;74.50;;;;;;4821683;29;87001;-72
2022/09/09 13:23:31;;;;;;;3.30;0.50;;;23.10;74.10;;;;;;4819362;29;87799;-73
2022/09/09 13:26:04;;;;;;;1.85;0.68;;;23.10;71.60;;;;;;4819884;29;87282;-70
2022/09/09 13:28:30;;;;;;;1.55;0.30;;;22.70;72.70;;;;;;4819691;29;87092;-72
2022/09/09 13:31:04;;;;;;;1.30;0.40;;;22.60;70.70;;;;;;4822566;29;88450;-71
2022/09/09 13:33:36;;;;;;;1.25;0.43;;;22.30;71.20;;;;;;4816774;29;86475;-73
2022/09/09 13:36:05;;;;;;;2.13;0.82;;;22.10;73.90;;;;;;4819426;29;86862;-70
2022/09/09 13:38:46;;;;;;;4.55;0.95;;;21.80;74.30;;;;;;4815534;29;86435;-70
2022/09/09 13:41:21;;;;;;;3.03;0.30;;;21.50;73.10;;;;;;4816892;29;87939;-71
2022/09/09 13:43:47;;;;;;;1.92;0.50;;;21.40;74.90;;;;;;4821044;29;86449;-72
2022/09/09 13:46:40;;;;;;;2.90;0.85;;;21.10;73.00;;;;;;4819894;29;87012;-73
2022/09/09 13:49:08;;;;;;;3.17;0.57;;;21.00;77.80;;;;;;4818381;29;87049;-72
2022/09/09 13:51:47;;;;;;;2.45;0.52;;;21.20;78.70;;;;;;4814708;29;86708;-70
2022/09/09 13:54:15;;;;;;;2.22;0.70;;;21.40;75.40;;;;;;4820497;29;86556;-74
2022/09/09 13:56:42;;;;;;;2.30;0.30;;;21.60;76.50;;;;;;4821321;29;86742;-73
2022/09/09 13:59:18;;;;;;;3.65;0.40;;;21.70;77.10;;;;;;4819083;29;86983;-73
2022/09/09 14:01:44;;;;;;;1.80;0.60;;;21.80;76.80;;;;;;4815940;29;87379;-73
2022/09/09 14:04:10;;;;;;;41.83;2.60;;;21.60;75.60;;;;;;4818563;29;86774;-72
2022/09/09 14:06:40;;;;;;;7.18;0.50;;;21.60;74.20;;;;;;4823496;29;87860;-71
2022/09/09 14:09:07;;;;;;;1.30;0.20;;;21.40;74.50;;;;;;4823788;29;87154;-69
2022/09/09 14:11:33;;;;;;;2.63;0.40;;;21.10;74.80;;;;;;4821486;29;87112;-70
2022/09/09 14:13:59;;;;;;;1.55;0.32;;;20.80;71.70;;;;;;4816527;29;87721;-71
2022/09/09 14:16:26;;;;;;;1.15;0.40;;;20.90;73.60;;;;;;4814998;29;87155;-73
2022/09/09 14:18:52;;;;;;;8.88;1.33;;;21.00;73.90;;;;;;4821861;29;87032;-71
2022/09/09 14:21:17;;;;;;;1.75;0.50;;;21.10;75.40;;;;;;4813450;29;86295;-73
2022/09/09 14:23:43;;;;;;;1.00;0.30;;;20.90;73.50;;;;;;4817605;29;85665;-72
2022/09/09 14:26:09;;;;;;;1.27;0.40;;;21.00;74.10;;;;;;4815282;29;87084;-70
2022/09/09 14:28:36;;;;;;;2.97;0.40;;;21.00;73.70;;;;;;4817511;29;86626;-75
2022/09/09 14:31:05;;;;;;;1.67;0.43;;;21.00;73.10;;;;;;4824325;29;88121;-73
2022/09/09 14:33:31;;;;;;;1.90;0.32;;;20.90;70.60;;;;;;4820219;29;88369;-75
2022/09/09 14:35:59;;;;;;;1.20;0.50;;;20.70;74.60;;;;;;4811254;29;87793;-72
2022/09/09 14:38:25;;;;;;;1.40;0.30;;;20.40;74.20;;;;;;4809778;29;86870;-72
2022/09/09 14:40:51;;;;;;;1.23;0.40;;;20.50;73.50;;;;;;4819314;29;86926;-70
2022/09/09 14:43:16;;;;;;;3.10;0.22;;;20.70;74.60;;;;;;4812326;29;86384;-71
2022/09/09 14:45:43;;;;;;;2.08;0.30;;;20.70;72.30;;;;;;4817103;29;87273;-70
2022/09/09 14:48:09;;;;;;;4.57;0.30;;;20.70;72.50;;;;;;4816156;29;86496;-72
2022/09/09 14:50:36;;;;;;;0.85;0.50;;;20.80;73.70;;;;;;4819600;29;87016;-70
2022/09/09 14:53:02;;;;;;;1.70;0.10;;;20.70;70.00;;;;;;4813395;29;86487;-71
2022/09/09 14:55:29;;;;;;;2.20;0.40;;;20.70;72.20;;;;;;4822004;29;87631;-73
2022/09/09 14:57:54;;;;;;;1.67;0.30;;;20.60;71.00;;;;;;4822618;29;87115;-71
2022/09/09 15:00:20;;;;;;;1.55;0.52;;;20.50;73.50;;;;;;4811491;29;86270;-72
2022/09/09 15:02:46;;;;;;;1.58;0.20;;;20.40;74.00;;;;;;4821561;29;86896;-72
2022/09/09 15:05:11;;;;;;;1.23;0.30;;;20.50;72.50;;;;;;4819684;29;87015;-71
2022/09/09 15:07:38;;;;;;;1.98;0.52;;;20.60;73.30;;;;;;4821814;29;86917;-72
2022/09/09 15:10:04;;;;;;;0.60;0.20;;;20.60;75.10;;;;;;4815945;29;87383;-72
2022/09/09 15:12:30;;;;;;;1.10;0.30;;;20.80;75.30;;;;;;4816966;29;85635;-70
2022/09/09 15:14:56;;;;;;;1.55;0.43;;;20.80;74.10;;;;;;4821239;29;87550;-72
2022/09/09 15:17:21;;;;;;;1.20;0.50;;;20.90;71.80;;;;;;4824109;29;86921;-73
2022/09/09 15:19:49;;;;;;;1.15;0.35;;;20.90;71.20;;;;;;4816733;29;87750;-70
2022/09/09 15:22:15;;;;;;;1.70;0.35;;;20.90;73.00;;;;;;4822073;29;86597;-71
2022/09/09 15:24:41;;;;;;;1.00;0.40;;;20.70;72.50;;;;;;4817137;29;87035;-72
2022/09/09 15:27:06;;;;;;;1.85;0.52;;;20.70;73.40;;;;;;4823504;29;86675;-73
2022/09/09 15:29:32;;;;;;;2.00;0.35;;;20.70;74.60;;;;;;4819563;29;86321;-70
2022/09/09 15:31:58;;;;;;;1.88;0.30;;;20.80;74.30;;;;;;4821061;29;86810;-70
2022/09/09 15:34:24;;;;;;;2.55;0.50;;;21.10;74.20;;;;;;4822618;29;87202;-71
2022/09/09 15:36:50;;;;;;;2.33;0.30;;;21.40;74.40;;;;;;4812903;29;90595;-70
2022/09/09 15:39:17;;;;;;;2.72;0.32;;;21.70;75.00;;;;;;4817044;29;87008;-71
2022/09/09 15:41:44;;;;;;;1.10;0.30;;;21.80;73.50;;;;;;4817289;29;86354;-70
2022/09/09 15:44:13;;;;;;;2.63;0.22;;;22.10;73.70;;;;;;4823713;29;88262;-70
2022/09/09 15:46:50;;;;;;;1.23;0.50;;;22.20;73.70;;;;;;4821311;29;87849;-70
2022/09/09 15:49:25;;;;;;;1.58;0.30;;;22.10;71.80;;;;;;4818773;29;86615;-70
2022/09/09 15:52:03;;;;;;;1.70;0.40;;;22.00;70.70;;;;;;4820299;29;86258;-72
2022/09/09 15:54:33;;;;;;;1.27;0.30;;;21.80;71.40;;;;;;4822969;29;87034;-72